createdAt,value
2023-02-17T00:00:10.781Z,77.71
2023-02-17T00:01:10.811Z,78.67
2023-02-17T00:02:10.848Z,79.49
2023-02-17T00:03:10.793Z,79.49
2023-02-17T00:04:10.722Z,79.38
2023-02-17T00:05:10.719Z,78.87
2023-02-17T00:06:10.734Z,79.18
2023-02-17T00:07:10.700Z,79.69
2023-02-17T00:08:10.689Z,80.17
2023-02-17T00:09:10.703Z,79.59
2023-02-17T00:10:10.702Z,80.10
2023-02-17T00:11:10.684Z,80.10
2023-02-17T00:12:10.644Z,80.62
2023-02-17T00:13:10.625Z,80.82
2023-02-17T00:14:10.617Z,80.72
2023-02-17T00:15:10.601Z,80.51
2023-02-17T00:16:10.593Z,81.13
2023-02-17T00:17:10.600Z,80.82
2023-02-17T00:18:10.577Z,81.13
2023-02-17T00:19:10.581Z,81.99
2023-02-17T00:20:10.545Z,81.78
2023-02-17T00:21:10.533Z,81.68
2023-02-17T00:22:10.550Z,82.09
2023-02-17T00:23:10.525Z,82.29
2023-02-17T00:24:10.543Z,83.32
2023-02-17T00:25:10.508Z,83.22
2023-02-17T00:26:10.478Z,83.53
2023-02-17T00:27:10.464Z,83.12
2023-02-17T00:28:10.478Z,83.15
2023-02-17T00:29:10.448Z,83.46
2023-02-17T00:30:10.518Z,83.05
2023-02-17T00:31:10.550Z,82.43
2023-02-17T00:32:10.654Z,82.64
2023-02-17T00:33:10.432Z,83.56
2023-02-17T00:34:10.404Z,83.05
2023-02-17T00:35:10.399Z,83.56
2023-02-17T00:36:10.383Z,83.87
2023-02-17T00:37:10.363Z,83.46
2023-02-17T00:38:10.374Z,82.84
2023-02-17T00:39:10.352Z,83.22
2023-02-17T00:40:10.337Z,83.26
2023-02-17T00:41:10.347Z,83.56
2023-02-17T00:42:10.312Z,84.39
2023-02-17T00:43:10.303Z,84.18
2023-02-17T00:44:10.313Z,84.49
2023-02-17T00:45:10.347Z,85.14
2023-02-17T00:46:10.435Z,85.55
2023-02-17T00:47:10.255Z,86.03
2023-02-17T00:48:10.244Z,85.72
2023-02-17T00:49:10.245Z,85.52
2023-02-17T00:50:10.226Z,85.82
2023-02-17T00:51:10.237Z,85.52
2023-02-17T00:52:10.211Z,86.33
2023-02-17T00:53:10.219Z,86.13
2023-02-17T00:54:10.208Z,85.97
2023-02-17T00:55:10.182Z,87.10
2023-02-17T00:56:10.174Z,86.17
2023-02-17T00:57:10.160Z,87.10
2023-02-17T00:58:10.144Z,85.86
2023-02-17T00:59:10.144Z,85.86
2023-02-17T01:00:10.130Z,85.66
2023-02-17T01:01:10.143Z,85.97
2023-02-17T01:02:10.104Z,85.97
2023-02-17T01:03:10.099Z,85.76
2023-02-17T01:04:10.070Z,85.86
2023-02-17T01:05:10.069Z,85.52
2023-02-17T01:06:10.061Z,85.76
2023-02-17T01:07:10.076Z,85.55
2023-02-17T01:08:10.038Z,85.66
2023-02-17T01:09:10.028Z,85.25
2023-02-17T01:10:10.079Z,85.80
2023-02-17T01:11:10.005Z,85.97
2023-02-17T01:12:10.013Z,85.86
2023-02-17T01:13:09.989Z,85.55
2023-02-17T01:14:09.983Z,85.46
2023-02-17T01:15:10.596Z,85.35
2023-02-17T01:16:09.990Z,85.97
2023-02-17T01:17:10.540Z,85.76
2023-02-17T01:18:09.926Z,85.14
2023-02-17T01:19:09.930Z,85.14
2023-02-17T01:20:09.922Z,85.14
2023-02-17T01:21:09.902Z,85.66
2023-02-17T01:22:09.882Z,85.55
2023-02-17T01:23:09.910Z,85.76
2023-02-17T01:24:09.862Z,85.97
2023-02-17T01:25:09.849Z,85.86
2023-02-17T01:26:09.875Z,85.55
2023-02-17T01:27:09.831Z,85.86
2023-02-17T01:28:09.812Z,85.55
2023-02-17T01:29:09.819Z,85.86
2023-02-17T01:30:09.838Z,85.25
2023-02-17T01:31:09.879Z,85.14
2023-02-17T01:32:09.797Z,86.07
2023-02-17T01:33:09.758Z,85.97
2023-02-17T01:34:09.757Z,85.55
2023-02-17T01:35:09.733Z,85.46
2023-02-17T01:36:09.727Z,85.97
2023-02-17T01:37:09.788Z,86.27
2023-02-17T01:38:09.700Z,86.07
2023-02-17T01:39:09.759Z,86.27
2023-02-17T01:40:09.679Z,85.86
2023-02-17T01:41:09.701Z,85.66
2023-02-17T01:42:09.658Z,85.86
2023-02-17T01:43:09.665Z,86.17
2023-02-17T01:44:09.634Z,85.97
2023-02-17T01:45:09.626Z,85.86
2023-02-17T01:46:09.610Z,85.55
2023-02-17T01:47:09.617Z,85.46
2023-02-17T01:48:09.616Z,86.07
2023-02-17T01:49:09.592Z,85.46
2023-02-17T01:50:09.575Z,85.76
2023-02-17T01:51:09.559Z,85.52
2023-02-17T01:52:09.551Z,85.82
2023-02-17T01:53:09.644Z,85.93
2023-02-17T01:54:09.570Z,85.41
2023-02-17T01:55:09.528Z,86.17
2023-02-17T01:56:09.496Z,86.89
2023-02-17T01:57:09.520Z,86.75
2023-02-17T01:58:09.473Z,87.37
2023-02-17T01:59:09.489Z,87.26
2023-02-17T02:00:09.451Z,87.40
2023-02-17T02:01:09.458Z,87.30
2023-02-17T02:02:09.562Z,87.40
2023-02-17T02:03:09.438Z,87.51
2023-02-17T02:04:09.464Z,87.92
2023-02-17T02:05:09.398Z,88.12
2023-02-17T02:06:09.396Z,88.84
2023-02-17T02:07:09.380Z,89.25
2023-02-17T02:08:09.365Z,88.95
2023-02-17T02:09:09.365Z,89.36
2023-02-17T02:10:09.352Z,89.40
2023-02-17T02:11:09.351Z,89.81
2023-02-17T02:12:09.319Z,90.32
2023-02-17T02:13:09.313Z,90.22
2023-02-17T02:14:09.324Z,90.83
2023-02-17T02:15:09.297Z,90.32
2023-02-17T02:16:09.590Z,91.08
2023-02-17T02:17:09.281Z,91.35
2023-02-17T02:18:09.275Z,91.14
2023-02-17T02:19:09.263Z,91.97
2023-02-17T02:20:09.268Z,92.07
2023-02-17T02:21:09.253Z,91.45
2023-02-17T02:22:09.224Z,91.97
2023-02-17T02:23:09.210Z,91.49
2023-02-17T02:24:09.197Z,92.27
2023-02-17T02:25:09.190Z,92.93
2023-02-17T02:26:09.190Z,92.93
2023-02-17T02:27:09.216Z,92.63
2023-02-17T02:28:09.148Z,92.93
2023-02-17T02:29:09.141Z,92.83
2023-02-17T02:30:09.188Z,93.44
2023-02-17T02:31:09.340Z,93.24
2023-02-17T02:32:09.158Z,92.63
2023-02-17T02:33:09.118Z,92.73
2023-02-17T02:34:09.092Z,93.76
2023-02-17T02:35:09.073Z,93.86
2023-02-17T02:36:09.080Z,93.76
2023-02-17T02:37:09.075Z,93.39
2023-02-17T02:38:09.081Z,93.86
2023-02-17T02:39:09.040Z,94.48
2023-02-17T02:40:09.025Z,94.37
2023-02-17T02:41:09.021Z,93.76
2023-02-17T02:42:08.996Z,93.70
2023-02-17T02:43:09.023Z,93.70
2023-02-17T02:44:08.982Z,93.65
2023-02-17T02:45:08.966Z,93.86
2023-02-17T02:46:09.521Z,93.76
2023-02-17T02:47:08.967Z,94.11
2023-02-17T02:48:08.934Z,93.80
2023-02-17T02:49:08.934Z,94.37
2023-02-17T02:50:08.916Z,93.59
2023-02-17T02:51:08.909Z,94.01
2023-02-17T02:52:08.882Z,94.07
2023-02-17T02:53:08.889Z,94.78
2023-02-17T02:54:08.865Z,94.01
2023-02-17T02:55:08.853Z,94.73
2023-02-17T02:56:08.839Z,94.52
2023-02-17T02:57:08.841Z,94.93
2023-02-17T02:58:08.827Z,95.14
2023-02-17T02:59:08.841Z,94.83
2023-02-17T03:00:18.056Z,94.73
2023-02-17T03:01:08.843Z,94.87
2023-02-17T03:02:08.771Z,95.14
2023-02-17T03:03:08.790Z,95.14
2023-02-17T03:04:08.848Z,95.14
2023-02-17T03:05:08.733Z,94.93
2023-02-17T03:06:08.843Z,95.03
2023-02-17T03:07:08.717Z,94.83
2023-02-17T03:08:08.730Z,94.77
2023-02-17T03:09:08.702Z,95.34
2023-02-17T03:10:08.694Z,95.14
2023-02-17T03:11:08.682Z,95.34
2023-02-17T03:12:08.661Z,95.45
2023-02-17T03:13:08.651Z,95.45
2023-02-17T03:14:08.659Z,95.18
2023-02-17T03:15:08.665Z,95.08
2023-02-17T03:16:08.872Z,95.39
2023-02-17T03:17:08.616Z,95.14
2023-02-17T03:18:08.601Z,95.59
2023-02-17T03:19:08.587Z,95.08
2023-02-17T03:20:08.600Z,95.49
2023-02-17T03:21:08.565Z,95.90
2023-02-17T03:22:08.560Z,96.00
2023-02-17T03:23:08.552Z,96.00
2023-02-17T03:24:08.539Z,95.80
2023-02-17T03:25:08.532Z,96.00
2023-02-17T03:26:08.534Z,95.28
2023-02-17T03:27:08.505Z,95.39
2023-02-17T03:28:08.499Z,95.03
2023-02-17T03:29:08.476Z,95.70
2023-02-17T03:30:08.496Z,95.80
2023-02-17T03:31:08.502Z,95.24
2023-02-17T03:32:08.553Z,95.28
2023-02-17T03:33:08.455Z,95.86
2023-02-17T03:34:08.429Z,95.90
2023-02-17T03:35:08.410Z,95.96
2023-02-17T03:36:08.507Z,95.86
2023-02-17T03:37:08.411Z,95.86
2023-02-17T03:38:08.379Z,96.11
2023-02-17T03:39:08.380Z,95.96
2023-02-17T03:40:08.371Z,95.59
2023-02-17T03:41:08.365Z,95.86
2023-02-17T03:42:08.344Z,95.96
2023-02-17T03:43:08.338Z,95.96
2023-02-17T03:44:08.329Z,95.96
2023-02-17T03:45:08.308Z,96.11
2023-02-17T03:46:08.736Z,96.42
2023-02-17T03:47:08.307Z,96.58
2023-02-17T03:48:08.272Z,96.27
2023-02-17T03:49:08.281Z,97.30
2023-02-17T03:50:08.274Z,96.89
2023-02-17T03:51:08.233Z,97.09
2023-02-17T03:52:08.242Z,96.89
2023-02-17T03:53:08.224Z,96.58
2023-02-17T03:54:08.197Z,96.99
2023-02-17T03:55:08.188Z,97.30
2023-02-17T03:56:08.250Z,97.50
2023-02-17T03:57:08.166Z,97.30
2023-02-17T03:58:08.176Z,97.19
2023-02-17T03:59:08.151Z,97.40
2023-02-17T04:00:08.160Z,97.50
2023-02-17T04:01:08.211Z,97.61
2023-02-17T04:02:08.111Z,98.33
2023-02-17T04:03:08.126Z,98.12
2023-02-17T04:04:08.179Z,98.22
2023-02-17T04:05:08.088Z,97.91
2023-02-17T04:06:08.529Z,97.91
2023-02-17T04:07:08.073Z,97.91
2023-02-17T04:08:08.061Z,98.63
2023-02-17T04:09:08.047Z,98.12
2023-02-17T04:10:09.509Z,98.68
2023-02-17T04:11:08.045Z,98.74
2023-02-17T04:12:08.031Z,98.58
2023-02-17T04:13:07.992Z,98.74
2023-02-17T04:14:07.983Z,99.05
2023-02-17T04:15:07.985Z,99.87
2023-02-17T04:16:08.228Z,99.35
2023-02-17T04:17:07.953Z,99.35
2023-02-17T04:18:07.939Z,98.53
2023-02-17T04:19:07.973Z,99.35
2023-02-17T04:20:07.926Z,99.30
2023-02-17T04:21:07.902Z,99.40
2023-02-17T04:22:07.889Z,99.71
2023-02-17T04:23:07.887Z,99.81
2023-02-17T04:24:07.866Z,99.40
2023-02-17T04:25:07.858Z,99.40
2023-02-17T04:26:08.166Z,99.81
2023-02-17T04:27:07.850Z,99.77
2023-02-17T04:28:07.833Z,99.30
2023-02-17T04:29:07.807Z,99.25
2023-02-17T04:30:07.850Z,99.46
2023-02-17T04:31:07.877Z,99.51
2023-02-17T04:32:07.854Z,99.99
2023-02-17T04:33:07.765Z,99.99
2023-02-17T04:34:07.770Z,99.99
2023-02-17T04:35:07.836Z,99.99
2023-02-17T04:36:08.060Z,99.99
2023-02-17T04:37:07.745Z,99.97
2023-02-17T04:38:07.718Z,99.99
2023-02-17T04:39:07.702Z,99.99
2023-02-17T04:40:07.702Z,99.99
2023-02-17T04:41:07.692Z,99.99
2023-02-17T04:42:07.705Z,99.99
2023-02-17T04:43:07.650Z,99.99
2023-02-17T04:44:07.660Z,99.99
2023-02-17T04:45:07.633Z,99.99
2023-02-17T04:46:08.070Z,99.99
2023-02-17T04:47:07.615Z,99.99
2023-02-17T04:48:07.621Z,99.99
2023-02-17T04:49:07.597Z,99.99
2023-02-17T04:50:07.569Z,99.99
2023-02-17T04:51:07.593Z,99.99
2023-02-17T04:52:07.561Z,99.99
2023-02-17T04:53:07.575Z,99.99
2023-02-17T04:54:07.536Z,99.99
2023-02-17T04:55:07.522Z,99.99
2023-02-17T04:56:07.863Z,99.99
2023-02-17T04:57:07.496Z,99.99
2023-02-17T04:58:07.494Z,99.99
2023-02-17T04:59:07.530Z,99.99
2023-02-17T05:00:07.462Z,99.99
2023-02-17T05:01:07.523Z,99.99
2023-02-17T05:02:07.444Z,99.99
2023-02-17T05:03:07.438Z,99.99
2023-02-17T05:04:07.462Z,99.99
2023-02-17T05:05:07.484Z,99.99
2023-02-17T05:06:07.575Z,99.99
2023-02-17T05:07:07.413Z,99.99
2023-02-17T05:08:07.376Z,99.99
2023-02-17T05:09:07.371Z,99.99
2023-02-17T05:10:07.375Z,99.99
2023-02-17T05:11:07.413Z,99.99
2023-02-17T05:12:07.332Z,99.99
2023-02-17T05:13:07.319Z,99.99
2023-02-17T05:14:07.308Z,99.99
2023-02-17T05:15:07.314Z,99.99
2023-02-17T05:16:07.712Z,99.99
2023-02-17T05:17:07.278Z,99.99
2023-02-17T05:18:07.284Z,99.99
2023-02-17T05:19:07.262Z,99.99
2023-02-17T05:20:07.256Z,99.99
2023-02-17T05:21:07.249Z,99.99
2023-02-17T05:22:07.227Z,99.99
2023-02-17T05:23:07.244Z,99.99
2023-02-17T05:24:07.199Z,99.99
2023-02-17T05:25:07.196Z,99.99
2023-02-17T05:26:07.544Z,99.99
2023-02-17T05:27:07.171Z,99.99
2023-02-17T05:28:07.163Z,99.99
2023-02-17T05:29:07.140Z,99.99
2023-02-17T05:30:07.205Z,99.99
2023-02-17T05:31:07.346Z,99.99
2023-02-17T05:32:07.175Z,99.99
2023-02-17T05:33:07.097Z,99.99
2023-02-17T05:34:07.096Z,99.99
2023-02-17T05:35:07.081Z,99.99
2023-02-17T05:36:07.468Z,99.99
2023-02-17T05:37:07.080Z,99.99
2023-02-17T05:38:07.041Z,99.99
2023-02-17T05:39:07.055Z,99.99
2023-02-17T05:40:07.030Z,99.99
2023-02-17T05:41:07.017Z,99.99
2023-02-17T05:42:07.036Z,99.99
2023-02-17T05:43:07.009Z,99.99
2023-02-17T05:44:07.034Z,99.99
2023-02-17T05:45:06.977Z,99.99
2023-02-17T05:46:07.348Z,99.99
2023-02-17T05:47:06.954Z,99.99
2023-02-17T05:48:06.950Z,99.99
2023-02-17T05:49:06.941Z,99.99
2023-02-17T05:50:06.925Z,99.99
2023-02-17T05:51:06.907Z,99.99
2023-02-17T05:52:06.917Z,99.99
2023-02-17T05:53:06.883Z,99.99
2023-02-17T05:54:06.866Z,99.99
2023-02-17T05:55:06.878Z,99.99
2023-02-17T05:56:07.217Z,99.99
2023-02-17T05:57:06.853Z,99.99
2023-02-17T05:58:06.839Z,99.99
2023-02-17T05:59:06.837Z,99.99
2023-02-17T06:00:06.823Z,99.99
2023-02-17T06:01:06.798Z,99.99
2023-02-17T06:02:06.787Z,99.99
2023-02-17T06:03:06.848Z,99.99
2023-02-17T06:04:06.771Z,99.99
2023-02-17T06:05:06.838Z,99.99
2023-02-17T06:06:07.071Z,99.99
2023-02-17T06:07:06.735Z,99.99
2023-02-17T06:08:06.727Z,99.99
2023-02-17T06:09:06.707Z,99.99
2023-02-17T06:10:06.718Z,99.99
2023-02-17T06:11:06.720Z,99.82
2023-02-17T06:12:06.683Z,99.99
2023-02-17T06:13:06.679Z,99.99
2023-02-17T06:14:06.649Z,99.99
2023-02-17T06:15:06.648Z,99.82
2023-02-17T06:16:06.992Z,99.99
2023-02-17T06:17:06.615Z,99.62
2023-02-17T06:18:06.633Z,99.82
2023-02-17T06:19:06.608Z,99.82
2023-02-17T06:20:06.635Z,99.41
2023-02-17T06:21:06.638Z,99.72
2023-02-17T06:22:06.564Z,99.72
2023-02-17T06:23:06.553Z,99.62
2023-02-17T06:24:06.549Z,99.41
2023-02-17T06:25:06.541Z,99.21
2023-02-17T06:26:06.871Z,99.31
2023-02-17T06:27:06.540Z,99.87
2023-02-17T06:28:06.511Z,99.62
2023-02-17T06:29:06.493Z,99.31
2023-02-17T06:30:06.535Z,98.69
2023-02-17T06:31:06.574Z,98.69
2023-02-17T06:32:06.509Z,98.90
2023-02-17T06:33:06.467Z,98.69
2023-02-17T06:34:06.791Z,98.90
2023-02-17T06:35:06.427Z,98.59
2023-02-17T06:36:06.830Z,98.79
2023-02-17T06:37:06.395Z,98.49
2023-02-17T06:38:06.413Z,98.49
2023-02-17T06:39:06.370Z,98.69
2023-02-17T06:40:06.365Z,98.75
2023-02-17T06:41:06.346Z,98.79
2023-02-17T06:42:06.364Z,98.54
2023-02-17T06:43:06.350Z,98.54
2023-02-17T06:44:06.334Z,98.69
2023-02-17T06:45:06.298Z,97.92
2023-02-17T06:46:06.684Z,97.97
2023-02-17T06:47:06.290Z,98.03
2023-02-17T06:48:06.285Z,97.82
2023-02-17T06:49:06.324Z,97.72
2023-02-17T06:50:06.263Z,98.03
2023-02-17T06:51:06.241Z,97.52
2023-02-17T06:52:06.240Z,97.82
2023-02-17T06:53:06.232Z,97.82
2023-02-17T06:54:06.227Z,98.24
2023-02-17T06:55:06.201Z,97.41
2023-02-17T06:56:06.521Z,97.41
2023-02-17T06:57:06.192Z,97.20
2023-02-17T06:58:06.170Z,97.20
2023-02-17T06:59:06.186Z,97.20
2023-02-17T07:00:06.150Z,97.20
2023-02-17T07:01:06.144Z,97.20
2023-02-17T07:02:06.620Z,97.52
2023-02-17T07:03:06.215Z,97.16
2023-02-17T07:04:06.113Z,97.57
2023-02-17T07:05:06.079Z,96.80
2023-02-17T07:06:06.451Z,96.69
2023-02-17T07:07:06.059Z,96.95
2023-02-17T07:08:06.061Z,96.75
2023-02-17T07:09:06.059Z,96.75
2023-02-17T07:10:06.054Z,96.75
2023-02-17T07:11:06.031Z,96.14
2023-02-17T07:12:06.018Z,96.14
2023-02-17T07:13:06.011Z,96.44
2023-02-17T07:14:06.017Z,96.14
2023-02-17T07:15:05.989Z,96.14
2023-02-17T07:16:06.372Z,95.98
2023-02-17T07:17:05.970Z,95.68
2023-02-17T07:18:05.956Z,95.42
2023-02-17T07:19:06.006Z,95.62
2023-02-17T07:20:06.620Z,95.93
2023-02-17T07:21:05.906Z,95.37
2023-02-17T07:22:05.903Z,95.47
2023-02-17T07:23:05.901Z,95.78
2023-02-17T07:24:05.877Z,95.68
2023-02-17T07:25:05.894Z,95.47
2023-02-17T07:26:06.335Z,95.27
2023-02-17T07:27:05.852Z,95.78
2023-02-17T07:28:05.845Z,94.96
2023-02-17T07:29:05.828Z,95.17
2023-02-17T07:30:05.854Z,94.96
2023-02-17T07:31:05.870Z,95.06
2023-02-17T07:32:05.857Z,94.81
2023-02-17T07:33:06.972Z,95.47
2023-02-17T07:34:05.805Z,95.23
2023-02-17T07:35:05.758Z,94.71
2023-02-17T07:36:06.078Z,94.40
2023-02-17T07:37:05.736Z,94.92
2023-02-17T07:38:05.719Z,94.81
2023-02-17T07:39:05.725Z,94.85
2023-02-17T07:40:05.707Z,94.61
2023-02-17T07:41:06.171Z,94.51
2023-02-17T07:42:05.675Z,94.71
2023-02-17T07:43:05.674Z,94.40
2023-02-17T07:44:05.659Z,94.77
2023-02-17T07:45:05.650Z,94.51
2023-02-17T07:46:06.038Z,94.56
2023-02-17T07:47:05.670Z,94.26
2023-02-17T07:48:05.623Z,94.26
2023-02-17T07:49:05.636Z,94.56
2023-02-17T07:50:05.597Z,94.67
2023-02-17T07:51:05.637Z,94.05
2023-02-17T07:52:05.634Z,93.64
2023-02-17T07:53:05.551Z,93.44
2023-02-17T07:54:05.566Z,93.44
2023-02-17T07:55:05.551Z,93.23
2023-02-17T07:56:05.848Z,94.15
2023-02-17T07:57:05.543Z,94.15
2023-02-17T07:58:05.549Z,93.33
2023-02-17T07:59:05.598Z,93.64
2023-02-17T08:00:05.496Z,93.54
2023-02-17T08:01:05.573Z,93.64
2023-02-17T08:02:05.522Z,93.64
2023-02-17T08:03:05.468Z,93.64
2023-02-17T08:04:05.466Z,93.13
2023-02-17T08:05:05.445Z,93.23
2023-02-17T08:06:05.723Z,93.13
2023-02-17T08:07:05.443Z,93.60
2023-02-17T08:08:05.449Z,93.44
2023-02-17T08:09:05.375Z,92.41
2023-02-17T08:10:05.373Z,93.74
2023-02-17T08:11:05.681Z,93.54
2023-02-17T08:12:05.349Z,93.23
2023-02-17T08:13:05.336Z,93.49
2023-02-17T08:14:05.347Z,92.61
2023-02-17T08:15:05.333Z,93.49
2023-02-17T08:16:05.785Z,93.49
2023-02-17T08:17:05.357Z,92.57
2023-02-17T08:18:05.344Z,93.04
2023-02-17T08:19:07.500Z,92.53
2023-02-17T08:20:09.006Z,92.27
2023-02-17T08:21:05.658Z,92.27
2023-02-17T08:22:05.265Z,92.47
2023-02-17T08:23:05.277Z,92.53
2023-02-17T08:24:05.248Z,92.22
2023-02-17T08:25:05.232Z,92.63
2023-02-17T08:26:05.571Z,92.74
2023-02-17T08:27:05.229Z,92.63
2023-02-17T08:28:05.191Z,93.04
2023-02-17T08:29:05.167Z,92.32
2023-02-17T08:30:05.271Z,92.53
2023-02-17T08:31:05.250Z,92.53
2023-02-17T08:32:05.366Z,92.63
2023-02-17T08:33:05.137Z,93.66
2023-02-17T08:34:05.137Z,93.35
2023-02-17T08:35:05.115Z,93.15
2023-02-17T08:36:05.526Z,92.94
2023-02-17T08:37:05.109Z,93.45
2023-02-17T08:38:05.116Z,93.25
2023-02-17T08:39:05.066Z,92.94
2023-02-17T08:40:05.082Z,93.45
2023-02-17T08:41:05.045Z,93.86
2023-02-17T08:42:05.040Z,93.66
2023-02-17T08:43:05.045Z,93.66
2023-02-17T08:44:05.007Z,94.58
2023-02-17T08:45:05.013Z,94.48
2023-02-17T08:46:05.420Z,94.48
2023-02-17T08:47:04.983Z,94.27
2023-02-17T08:48:05.010Z,94.48
2023-02-17T08:49:04.960Z,93.96
2023-02-17T08:50:04.950Z,94.48
2023-02-17T08:51:04.967Z,94.17
2023-02-17T08:52:04.922Z,94.78
2023-02-17T08:53:04.944Z,94.48
2023-02-17T08:54:04.923Z,94.62
2023-02-17T08:55:04.917Z,95.09
2023-02-17T08:56:05.229Z,95.09
2023-02-17T08:57:04.958Z,95.14
2023-02-17T08:58:04.990Z,94.48
2023-02-17T08:59:04.851Z,95.09
2023-02-17T09:00:14.160Z,95.09
2023-02-17T09:01:04.894Z,95.09
2023-02-17T09:02:04.828Z,94.78
2023-02-17T09:03:04.839Z,94.89
2023-02-17T09:04:04.846Z,95.20
2023-02-17T09:05:04.833Z,94.89
2023-02-17T09:06:05.009Z,95.61
2023-02-17T09:07:04.833Z,95.50
2023-02-17T09:08:04.768Z,95.70
2023-02-17T09:09:04.724Z,95.09
2023-02-17T09:10:04.796Z,95.50
2023-02-17T09:11:06.539Z,95.29
2023-02-17T09:12:04.693Z,95.61
2023-02-17T09:13:04.686Z,95.50
2023-02-17T09:14:04.674Z,96.22
2023-02-17T09:15:04.784Z,95.70
2023-02-17T09:16:05.081Z,96.12
2023-02-17T09:17:04.724Z,96.22
2023-02-17T09:18:04.656Z,96.12
2023-02-17T09:19:04.651Z,96.42
2023-02-17T09:20:11.224Z,95.70
2023-02-17T09:21:05.612Z,96.63
2023-02-17T09:22:04.628Z,96.63
2023-02-17T09:23:04.614Z,96.83
2023-02-17T09:24:04.566Z,96.73
2023-02-17T09:25:04.557Z,96.63
2023-02-17T09:26:04.920Z,97.29
2023-02-17T09:27:04.546Z,97.29
2023-02-17T09:28:04.557Z,97.19
2023-02-17T09:29:04.507Z,97.14
2023-02-17T09:30:04.694Z,97.19
2023-02-17T09:31:04.539Z,97.19
2023-02-17T09:32:04.704Z,97.55
2023-02-17T09:33:04.485Z,97.60
2023-02-17T09:34:04.464Z,98.21
2023-02-17T09:35:04.443Z,98.32
2023-02-17T09:36:04.808Z,98.42
2023-02-17T09:37:04.786Z,98.11
2023-02-17T09:38:04.407Z,98.47
2023-02-17T09:39:04.430Z,98.37
2023-02-17T09:40:05.393Z,98.42
2023-02-17T09:41:04.386Z,98.21
2023-02-17T09:42:04.414Z,98.32
2023-02-17T09:43:04.406Z,98.62
2023-02-17T09:44:04.410Z,98.52
2023-02-17T09:45:04.350Z,98.88
2023-02-17T09:46:04.571Z,99.13
2023-02-17T09:47:04.441Z,98.72
2023-02-17T09:48:04.341Z,98.83
2023-02-17T09:49:04.318Z,99.03
2023-02-17T09:50:04.281Z,98.93
2023-02-17T09:51:04.331Z,99.03
2023-02-17T09:52:04.312Z,99.13
2023-02-17T09:53:04.260Z,99.03
2023-02-17T09:54:04.305Z,99.13
2023-02-17T09:55:04.491Z,99.24
2023-02-17T09:56:04.726Z,99.40
2023-02-17T09:57:04.274Z,99.08
2023-02-17T09:58:04.254Z,99.75
2023-02-17T09:59:04.256Z,99.13
2023-02-17T10:00:04.237Z,99.13
2023-02-17T10:01:04.168Z,99.54
2023-02-17T10:02:04.157Z,99.54
2023-02-17T10:03:04.180Z,99.34
2023-02-17T10:04:04.176Z,99.34
2023-02-17T10:05:04.273Z,99.95
2023-02-17T10:06:04.303Z,99.99
2023-02-17T10:07:04.099Z,99.95
2023-02-17T10:08:04.084Z,99.54
2023-02-17T10:09:04.090Z,99.65
2023-02-17T10:10:04.072Z,99.79
2023-02-17T10:11:04.108Z,99.99
2023-02-17T10:12:04.045Z,99.90
2023-02-17T10:13:04.025Z,99.95
2023-02-17T10:14:04.677Z,99.99
2023-02-17T10:15:04.037Z,99.75
2023-02-17T10:16:04.331Z,99.99
2023-02-17T10:17:04.079Z,99.99
2023-02-17T10:18:04.067Z,99.99
2023-02-17T10:19:03.971Z,99.99
2023-02-17T10:20:03.977Z,99.85
2023-02-17T10:21:04.020Z,99.99
2023-02-17T10:22:04.699Z,99.99
2023-02-17T10:23:04.031Z,99.99
2023-02-17T10:24:03.900Z,99.99
2023-02-17T10:25:03.890Z,99.99
2023-02-17T10:26:04.025Z,99.99
2023-02-17T10:27:03.952Z,99.99
2023-02-17T10:28:03.896Z,99.99
2023-02-17T10:29:03.984Z,99.99
2023-02-17T10:30:04.030Z,99.99
2023-02-17T10:31:04.048Z,99.99
2023-02-17T10:32:03.986Z,99.99
2023-02-17T10:33:03.915Z,99.99
2023-02-17T10:34:03.842Z,99.99
2023-02-17T10:35:03.825Z,99.99
2023-02-17T10:36:05.120Z,99.99
2023-02-17T10:37:03.885Z,99.99
2023-02-17T10:38:03.792Z,99.99
2023-02-17T10:39:03.753Z,99.99
2023-02-17T10:40:03.743Z,99.99
2023-02-17T10:41:03.729Z,99.99
2023-02-17T10:42:03.736Z,99.99
2023-02-17T10:43:07.055Z,99.95
2023-02-17T10:44:03.733Z,99.99
2023-02-17T10:45:03.778Z,99.99
2023-02-17T10:46:03.715Z,99.99
2023-02-17T10:47:03.662Z,99.99
2023-02-17T10:48:03.653Z,99.95
2023-02-17T10:49:06.265Z,99.60
2023-02-17T10:50:03.676Z,99.99
2023-02-17T10:51:03.616Z,99.99
2023-02-17T10:52:03.663Z,99.99
2023-02-17T10:53:03.609Z,99.40
2023-02-17T10:54:03.596Z,99.09
2023-02-17T10:55:11.426Z,99.19
2023-02-17T10:56:05.084Z,99.19
2023-02-17T10:57:03.824Z,99.19
2023-02-17T10:58:03.569Z,99.35
2023-02-17T10:59:03.594Z,99.50
2023-02-17T11:00:03.622Z,99.09
2023-02-17T11:01:03.616Z,99.35
2023-02-17T11:02:03.535Z,99.15
2023-02-17T11:03:03.495Z,98.88
2023-02-17T11:04:03.560Z,99.04
2023-02-17T11:05:03.745Z,98.83
2023-02-17T11:06:03.472Z,98.94
2023-02-17T11:07:03.456Z,98.94
2023-02-17T11:08:03.481Z,98.53
2023-02-17T11:09:04.216Z,98.63
2023-02-17T11:10:03.422Z,99.25
2023-02-17T11:11:03.413Z,98.33
2023-02-17T11:12:03.414Z,98.53
2023-02-17T11:13:03.439Z,98.33
2023-02-17T11:14:03.390Z,98.33
2023-02-17T11:15:03.439Z,98.12
2023-02-17T11:16:03.403Z,98.02
2023-02-17T11:17:03.347Z,98.22
2023-02-17T11:18:03.352Z,97.71
2023-02-17T11:19:04.680Z,97.46
2023-02-17T11:20:03.365Z,97.66
2023-02-17T11:21:03.321Z,97.46
2023-02-17T11:22:03.323Z,97.46
2023-02-17T11:23:03.339Z,97.36
2023-02-17T11:24:03.285Z,97.36
2023-02-17T11:25:03.261Z,97.66
2023-02-17T11:26:03.287Z,96.95
2023-02-17T11:27:03.256Z,97.25
2023-02-17T11:28:03.217Z,96.74
2023-02-17T11:29:03.218Z,97.25
2023-02-17T11:30:03.296Z,96.95
2023-02-17T11:31:03.288Z,96.54
2023-02-17T11:32:03.340Z,96.70
2023-02-17T11:33:03.163Z,96.44
2023-02-17T11:34:03.216Z,96.59
2023-02-17T11:35:03.157Z,96.49
2023-02-17T11:36:03.277Z,95.82
2023-02-17T11:37:03.156Z,96.29
2023-02-17T11:38:03.112Z,95.98
2023-02-17T11:39:03.168Z,95.37
2023-02-17T11:40:03.101Z,95.06
2023-02-17T11:41:03.208Z,94.85
2023-02-17T11:42:03.081Z,95.17
2023-02-17T11:43:03.084Z,94.96
2023-02-17T11:44:03.090Z,94.85
2023-02-17T11:45:03.058Z,94.65
2023-02-17T11:46:03.067Z,94.96
2023-02-17T11:47:03.032Z,94.34
2023-02-17T11:48:03.040Z,94.24
2023-02-17T11:49:03.044Z,94.10
2023-02-17T11:50:03.068Z,93.99
2023-02-17T11:51:02.979Z,94.40
2023-02-17T11:52:02.968Z,94.51
2023-02-17T11:53:02.954Z,94.20
2023-02-17T11:54:02.959Z,94.71
2023-02-17T11:55:02.948Z,94.30
2023-02-17T11:56:02.919Z,94.10
2023-02-17T11:57:02.909Z,94.30
2023-02-17T11:58:02.908Z,94.40
2023-02-17T11:59:02.899Z,94.30
2023-02-17T12:00:02.888Z,93.48
2023-02-17T12:01:02.850Z,94.40
2023-02-17T12:02:02.841Z,93.38
2023-02-17T12:03:02.886Z,92.97
2023-02-17T12:04:02.864Z,93.18
2023-02-17T12:05:02.881Z,93.33
2023-02-17T12:06:02.815Z,92.87
2023-02-17T12:07:02.806Z,93.33
2023-02-17T12:08:02.779Z,93.33
2023-02-17T12:09:02.773Z,93.44
2023-02-17T12:10:02.759Z,92.88
2023-02-17T12:11:02.764Z,92.99
2023-02-17T12:12:02.759Z,92.32
2023-02-17T12:13:02.768Z,92.27
2023-02-17T12:14:02.718Z,92.32
2023-02-17T12:15:02.716Z,92.27
2023-02-17T12:16:02.689Z,92.42
2023-02-17T12:17:02.714Z,92.37
2023-02-17T12:18:02.707Z,92.68
2023-02-17T12:19:02.798Z,91.76
2023-02-17T12:20:02.675Z,92.27
2023-02-17T12:21:02.637Z,91.66
2023-02-17T12:22:02.658Z,91.76
2023-02-17T12:23:02.662Z,91.76
2023-02-17T12:24:02.628Z,91.72
2023-02-17T12:25:02.611Z,91.56
2023-02-17T12:26:02.586Z,91.20
2023-02-17T12:27:02.578Z,91.00
2023-02-17T12:28:02.568Z,91.11
2023-02-17T12:29:02.566Z,91.52
2023-02-17T12:30:02.610Z,91.31
2023-02-17T12:31:02.970Z,90.90
2023-02-17T12:32:02.606Z,90.59
2023-02-17T12:33:02.551Z,90.55
2023-02-17T12:34:02.529Z,90.19
2023-02-17T12:35:02.518Z,90.25
2023-02-17T12:36:02.537Z,90.14
2023-02-17T12:37:02.475Z,90.04
2023-02-17T12:38:02.464Z,89.63
2023-02-17T12:39:02.472Z,90.14
2023-02-17T12:40:02.465Z,89.32
2023-02-17T12:41:02.467Z,89.18
2023-02-17T12:42:02.410Z,88.92
2023-02-17T12:43:02.422Z,88.88
2023-02-17T12:44:02.405Z,88.98
2023-02-17T12:45:02.377Z,89.08
2023-02-17T12:46:02.434Z,88.88
2023-02-17T12:47:02.369Z,88.98
2023-02-17T12:48:02.343Z,88.88
2023-02-17T12:49:02.355Z,88.73
2023-02-17T12:50:02.327Z,88.93
2023-02-17T12:51:02.360Z,89.08
2023-02-17T12:52:02.312Z,88.53